sensor_id;sensor_type;location;lat;lon;timestamp;P1;durP1;ratioP1;P2;durP2;ratioP2
14052;SDS011;7101;51.600;7.310;2024-03-23T00:54:26;9.77;;;2.22;;
14052;SDS011;7101;51.600;7.310;2024-03-23T00:56:53;6.80;;;1.83;;
14052;SDS011;7101;51.600;7.310;2024-03-23T00:59:21;9.05;;;2.40;;
14052;SDS011;7101;51.600;7.310;2024-03-23T01:01:52;9.15;;;2.47;;
14052;SDS011;7101;51.600;7.310;2024-03-23T01:04:18;10.75;;;2.42;;
14052;SDS011;7101;51.600;7.310;2024-03-23T01:06:45;7.38;;;2.45;;
14052;SDS011;7101;51.600;7.310;2024-03-23T01:09:11;7.70;;;2.28;;
14052;SDS011;7101;51.600;7.310;2024-03-23T01:11:41;7.75;;;2.55;;
14052;SDS011;7101;51.600;7.310;2024-03-23T01:14:07;6.32;;;2.30;;
14052;SDS011;7101;51.600;7.310;2024-03-23T01:16:36;7.35;;;2.47;;
14052;SDS011;7101;51.600;7.310;2024-03-23T01:19:02;12.45;;;2.20;;
14052;SDS011;7101;51.600;7.310;2024-03-23T01:21:29;5.65;;;1.73;;
14052;SDS011;7101;51.600;7.310;2024-03-23T01:23:54;2.38;;;1.50;;
14052;SDS011;7101;51.600;7.310;2024-03-23T01:26:21;6.75;;;1.60;;
14052;SDS011;7101;51.600;7.310;2024-03-23T01:28:48;2.20;;;1.15;;
14052;SDS011;7101;51.600;7.310;2024-03-23T01:31:15;5.15;;;1.52;;
14052;SDS011;7101;51.600;7.310;2024-03-23T01:33:41;3.95;;;1.38;;
14052;SDS011;7101;51.600;7.310;2024-03-23T01:36:08;3.22;;;1.27;;
14052;SDS011;7101;51.600;7.310;2024-03-23T01:38:34;7.25;;;2.05;;
14052;SDS011;7101;51.600;7.310;2024-03-23T01:41:01;2.20;;;1.10;;
14052;SDS011;7101;51.600;7.310;2024-03-23T01:43:27;5.10;;;1.60;;
14052;SDS011;7101;51.600;7.310;2024-03-23T01:45:55;2.92;;;1.52;;
14052;SDS011;7101;51.600;7.310;2024-03-23T01:48:21;6.78;;;1.83;;
14052;SDS011;7101;51.600;7.310;2024-03-23T01:50:49;7.43;;;1.80;;
14052;SDS011;7101;51.600;7.310;2024-03-23T01:53:15;4.45;;;1.60;;
14052;SDS011;7101;51.600;7.310;2024-03-23T01:55:44;5.70;;;1.75;;
14052;SDS011;7101;51.600;7.310;2024-03-23T01:58:10;9.35;;;1.70;;
14052;SDS011;7101;51.600;7.310;2024-03-23T02:00:37;9.65;;;2.22;;
14052;SDS011;7101;51.600;7.310;2024-03-23T02:03:11;5.50;;;1.88;;
14052;SDS011;7101;51.600;7.310;2024-03-23T02:05:49;9.23;;;2.30;;
14052;SDS011;7101;51.600;7.310;2024-03-23T02:08:15;5.70;;;1.55;;
14052;SDS011;7101;51.600;7.310;2024-03-23T02:10:43;5.20;;;2.05;;
14052;SDS011;7101;51.600;7.310;2024-03-23T02:13:09;6.22;;;2.05;;
14052;SDS011;7101;51.600;7.310;2024-03-23T02:15:37;5.40;;;1.85;;
14052;SDS011;7101;51.600;7.310;2024-03-23T02:18:06;4.35;;;1.70;;
14052;SDS011;7101;51.600;7.310;2024-03-23T02:20:33;6.70;;;1.48;;
14052;SDS011;7101;51.600;7.310;2024-03-23T02:23:01;10.57;;;2.15;;
14052;SDS011;7101;51.600;7.310;2024-03-23T02:25:28;9.90;;;1.88;;
14052;SDS011;7101;51.600;7.310;2024-03-23T02:27:55;4.35;;;1.40;;
14052;SDS011;7101;51.600;7.310;2024-03-23T02:30:23;4.60;;;1.98;;
14052;SDS011;7101;51.600;7.310;2024-03-23T02:32:50;4.50;;;1.60;;
14052;SDS011;7101;51.600;7.310;2024-03-23T02:35:17;5.78;;;1.33;;
14052;SDS011;7101;51.600;7.310;2024-03-23T02:37:43;5.50;;;1.75;;
14052;SDS011;7101;51.600;7.310;2024-03-23T02:40:11;11.70;;;1.88;;
14052;SDS011;7101;51.600;7.310;2024-03-23T02:42:37;13.70;;;1.83;;
14052;SDS011;7101;51.600;7.310;2024-03-23T02:45:04;4.57;;;1.70;;
14052;SDS011;7101;51.600;7.310;2024-03-23T02:47:30;8.32;;;1.73;;
14052;SDS011;7101;51.600;7.310;2024-03-23T02:49:57;5.00;;;1.55;;
14052;SDS011;7101;51.600;7.310;2024-03-23T02:52:23;9.00;;;2.20;;
14052;SDS011;7101;51.600;7.310;2024-03-23T02:54:50;10.18;;;1.48;;
14052;SDS011;7101;51.600;7.310;2024-03-23T02:57:17;3.63;;;1.42;;
14052;SDS011;7101;51.600;7.310;2024-03-23T02:59:44;7.18;;;1.58;;
14052;SDS011;7101;51.600;7.310;2024-03-23T03:02:11;6.30;;;1.42;;
14052;SDS011;7101;51.600;7.310;2024-03-23T03:04:39;2.45;;;1.30;;
14052;SDS011;7101;51.600;7.310;2024-03-23T03:07:05;6.18;;;1.55;;
14052;SDS011;7101;51.600;7.310;2024-03-23T03:09:32;6.07;;;1.42;;
14052;SDS011;7101;51.600;7.310;2024-03-23T03:11:58;4.82;;;1.30;;
14052;SDS011;7101;51.600;7.310;2024-03-23T03:14:26;6.05;;;1.42;;
14052;SDS011;7101;51.600;7.310;2024-03-23T03:16:53;7.45;;;1.38;;
14052;SDS011;7101;51.600;7.310;2024-03-23T03:19:20;4.15;;;1.80;;
14052;SDS011;7101;51.600;7.310;2024-03-23T03:21:46;3.42;;;1.50;;
14052;SDS011;7101;51.600;7.310;2024-03-23T03:24:13;4.30;;;1.70;;
14052;SDS011;7101;51.600;7.310;2024-03-23T03:26:39;5.72;;;1.73;;
14052;SDS011;7101;51.600;7.310;2024-03-23T03:29:06;6.47;;;2.10;;
14052;SDS011;7101;51.600;7.310;2024-03-23T03:31:33;8.02;;;1.70;;
14052;SDS011;7101;51.600;7.310;2024-03-23T03:34:00;5.95;;;1.80;;
14052;SDS011;7101;51.600;7.310;2024-03-23T03:36:25;6.47;;;1.45;;
14052;SDS011;7101;51.600;7.310;2024-03-23T03:38:52;8.07;;;2.33;;
14052;SDS011;7101;51.600;7.310;2024-03-23T03:41:18;8.48;;;1.90;;
14052;SDS011;7101;51.600;7.310;2024-03-23T03:43:45;8.38;;;2.28;;
14052;SDS011;7101;51.600;7.310;2024-03-23T03:46:11;8.48;;;1.98;;
14052;SDS011;7101;51.600;7.310;2024-03-23T03:48:39;6.72;;;1.88;;
14052;SDS011;7101;51.600;7.310;2024-03-23T03:51:05;5.07;;;2.05;;
14052;SDS011;7101;51.600;7.310;2024-03-23T03:53:32;7.78;;;2.17;;
14052;SDS011;7101;51.600;7.310;2024-03-23T03:56:00;7.95;;;1.80;;
14052;SDS011;7101;51.600;7.310;2024-03-23T03:58:27;4.15;;;1.48;;
14052;SDS011;7101;51.600;7.310;2024-03-23T04:00:53;5.18;;;1.73;;
14052;SDS011;7101;51.600;7.310;2024-03-23T04:03:20;6.85;;;1.85;;
14052;SDS011;7101;51.600;7.310;2024-03-23T04:05:50;4.95;;;1.70;;
14052;SDS011;7101;51.600;7.310;2024-03-23T04:08:17;5.97;;;1.77;;
14052;SDS011;7101;51.600;7.310;2024-03-23T04:10:44;5.30;;;1.85;;
14052;SDS011;7101;51.600;7.310;2024-03-23T04:13:10;7.15;;;1.60;;
14052;SDS011;7101;51.600;7.310;2024-03-23T04:15:37;5.85;;;1.70;;
14052;SDS011;7101;51.600;7.310;2024-03-23T04:18:04;6.30;;;1.75;;
14052;SDS011;7101;51.600;7.310;2024-03-23T04:20:30;3.88;;;1.55;;
14052;SDS011;7101;51.600;7.310;2024-03-23T04:22:58;5.07;;;2.05;;
14052;SDS011;7101;51.600;7.310;2024-03-23T04:25:24;6.50;;;1.80;;
14052;SDS011;7101;51.600;7.310;2024-03-23T04:27:51;7.05;;;1.90;;
14052;SDS011;7101;51.600;7.310;2024-03-23T04:30:17;2.75;;;1.50;;
14052;SDS011;7101;51.600;7.310;2024-03-23T04:32:44;4.63;;;1.95;;
14052;SDS011;7101;51.600;7.310;2024-03-23T04:35:10;10.52;;;1.75;;
14052;SDS011;7101;51.600;7.310;2024-03-23T04:37:38;6.28;;;1.60;;
14052;SDS011;7101;51.600;7.310;2024-03-23T04:40:08;4.13;;;1.65;;
14052;SDS011;7101;51.600;7.310;2024-03-23T04:42:36;5.63;;;1.88;;
14052;SDS011;7101;51.600;7.310;2024-03-23T04:45:04;3.78;;;1.30;;
14052;SDS011;7101;51.600;7.310;2024-03-23T04:47:32;5.65;;;1.80;;
14052;SDS011;7101;51.600;7.310;2024-03-23T04:50:00;3.95;;;1.75;;
14052;SDS011;7101;51.600;7.310;2024-03-23T04:52:28;11.02;;;2.13;;
14052;SDS011;7101;51.600;7.310;2024-03-23T04:54:56;3.90;;;1.50;;
14052;SDS011;7101;51.600;7.310;2024-03-23T04:57:23;8.13;;;1.70;;
14052;SDS011;7101;51.600;7.310;2024-03-23T04:59:50;5.53;;;1.83;;
14052;SDS011;7101;51.600;7.310;2024-03-23T05:02:16;4.90;;;2.15;;
14052;SDS011;7101;51.600;7.310;2024-03-23T05:04:43;8.38;;;1.80;;
14052;SDS011;7101;51.600;7.310;2024-03-23T05:07:08;5.90;;;1.73;;
14052;SDS011;7101;51.600;7.310;2024-03-23T05:09:36;7.18;;;2.33;;
14052;SDS011;7101;51.600;7.310;2024-03-23T05:12:02;9.75;;;2.20;;
14052;SDS011;7101;51.600;7.310;2024-03-23T05:14:30;6.50;;;2.28;;
14052;SDS011;7101;51.600;7.310;2024-03-23T05:16:56;7.22;;;2.28;;
14052;SDS011;7101;51.600;7.310;2024-03-23T05:19:23;6.70;;;2.60;;
14052;SDS011;7101;51.600;7.310;2024-03-23T05:21:49;9.02;;;2.70;;
14052;SDS011;7101;51.600;7.310;2024-03-23T05:24:16;7.25;;;2.40;;
14052;SDS011;7101;51.600;7.310;2024-03-23T05:26:41;8.23;;;2.78;;
14052;SDS011;7101;51.600;7.310;2024-03-23T05:29:09;11.57;;;2.67;;
14052;SDS011;7101;51.600;7.310;2024-03-23T05:31:39;8.38;;;2.88;;
14052;SDS011;7101;51.600;7.310;2024-03-23T05:34:07;13.75;;;3.10;;
14052;SDS011;7101;51.600;7.310;2024-03-23T05:36:34;5.68;;;2.67;;
14052;SDS011;7101;51.600;7.310;2024-03-23T05:39:01;9.07;;;2.72;;
14052;SDS011;7101;51.600;7.310;2024-03-23T05:41:27;9.93;;;3.33;;
14052;SDS011;7101;51.600;7.310;2024-03-23T05:43:54;10.38;;;3.33;;
14052;SDS011;7101;51.600;7.310;2024-03-23T05:46:20;10.65;;;3.30;;
14052;SDS011;7101;51.600;7.310;2024-03-23T05:48:48;11.48;;;3.42;;
14052;SDS011;7101;51.600;7.310;2024-03-23T05:51:15;10.57;;;3.33;;
14052;SDS011;7101;51.600;7.310;2024-03-23T05:53:42;11.27;;;2.92;;
14052;SDS011;7101;51.600;7.310;2024-03-23T05:56:08;7.65;;;3.03;;
14052;SDS011;7101;51.600;7.310;2024-03-23T05:58:35;10.50;;;3.13;;
14052;SDS011;7101;51.600;7.310;2024-03-23T06:01:02;7.68;;;2.92;;
14052;SDS011;7101;51.600;7.310;2024-03-23T06:03:29;10.27;;;3.38;;
14052;SDS011;7101;51.600;7.310;2024-03-23T06:05:57;11.98;;;3.05;;
14052;SDS011;7101;51.600;7.310;2024-03-23T06:11:00;12.13;;;3.20;;
14052;SDS011;7101;51.600;7.310;2024-03-23T06:13:27;11.23;;;4.20;;
14052;SDS011;7101;51.600;7.310;2024-03-23T06:15:55;6.60;;;3.30;;
14052;SDS011;7101;51.600;7.310;2024-03-23T06:18:23;9.63;;;3.65;;
14052;SDS011;7101;51.600;7.310;2024-03-23T06:20:52;13.70;;;4.03;;
14052;SDS011;7101;51.600;7.310;2024-03-23T06:23:20;10.85;;;5.00;;
14052;SDS011;7101;51.600;7.310;2024-03-23T06:25:46;10.52;;;4.28;;
14052;SDS011;7101;51.600;7.310;2024-03-23T06:28:13;9.70;;;3.83;;
14052;SDS011;7101;51.600;7.310;2024-03-23T06:30:39;12.00;;;3.97;;
14052;SDS011;7101;51.600;7.310;2024-03-23T06:33:06;14.20;;;5.00;;
14052;SDS011;7101;51.600;7.310;2024-03-23T06:35:32;9.13;;;5.00;;
14052;SDS011;7101;51.600;7.310;2024-03-23T06:37:59;11.00;;;5.55;;
14052;SDS011;7101;51.600;7.310;2024-03-23T06:40:26;14.52;;;5.28;;
14052;SDS011;7101;51.600;7.310;2024-03-23T06:42:53;13.85;;;6.15;;
14052;SDS011;7101;51.600;7.310;2024-03-23T06:45:20;11.98;;;5.10;;
14052;SDS011;7101;51.600;7.310;2024-03-23T06:47:48;14.07;;;6.47;;
14052;SDS011;7101;51.600;7.310;2024-03-23T06:50:14;16.92;;;6.15;;
14052;SDS011;7101;51.600;7.310;2024-03-23T06:52:41;10.32;;;4.78;;
14052;SDS011;7101;51.600;7.310;2024-03-23T06:55:07;10.82;;;5.32;;
14052;SDS011;7101;51.600;7.310;2024-03-23T06:57:36;20.92;;;6.15;;
14052;SDS011;7101;51.600;7.310;2024-03-23T07:00:02;13.80;;;5.63;;
14052;SDS011;7101;51.600;7.310;2024-03-23T07:02:30;11.45;;;5.07;;
14052;SDS011;7101;51.600;7.310;2024-03-23T07:04:57;10.80;;;4.95;;
14052;SDS011;7101;51.600;7.310;2024-03-23T07:07:23;6.10;;;4.22;;
14052;SDS011;7101;51.600;7.310;2024-03-23T07:09:49;9.23;;;4.70;;
14052;SDS011;7101;51.600;7.310;2024-03-23T07:12:17;11.50;;;4.07;;
14052;SDS011;7101;51.600;7.310;2024-03-23T07:14:45;9.00;;;4.15;;
14052;SDS011;7101;51.600;7.310;2024-03-23T07:17:11;5.97;;;3.42;;
14052;SDS011;7101;51.600;7.310;2024-03-23T07:19:37;11.02;;;3.40;;
14052;SDS011;7101;51.600;7.310;2024-03-23T07:22:04;10.77;;;2.80;;
14052;SDS011;7101;51.600;7.310;2024-03-23T07:24:33;8.00;;;3.22;;
14052;SDS011;7101;51.600;7.310;2024-03-23T07:27:00;17.88;;;3.30;;
14052;SDS011;7101;51.600;7.310;2024-03-23T07:29:27;9.35;;;3.50;;
14052;SDS011;7101;51.600;7.310;2024-03-23T07:31:55;9.90;;;3.40;;
14052;SDS011;7101;51.600;7.310;2024-03-23T07:34:21;13.20;;;3.78;;
14052;SDS011;7101;51.600;7.310;2024-03-23T07:36:49;9.65;;;3.55;;
14052;SDS011;7101;51.600;7.310;2024-03-23T07:39:16;7.90;;;3.30;;
14052;SDS011;7101;51.600;7.310;2024-03-23T07:41:44;9.80;;;3.75;;
14052;SDS011;7101;51.600;7.310;2024-03-23T07:44:10;10.68;;;3.40;;
14052;SDS011;7101;51.600;7.310;2024-03-23T07:46:37;10.40;;;3.60;;
14052;SDS011;7101;51.600;7.310;2024-03-23T07:49:05;11.32;;;3.30;;
14052;SDS011;7101;51.600;7.310;2024-03-23T07:51:32;9.70;;;2.83;;
14052;SDS011;7101;51.600;7.310;2024-03-23T07:53:58;9.77;;;2.95;;
14052;SDS011;7101;51.600;7.310;2024-03-23T07:56:25;7.68;;;2.85;;
14052;SDS011;7101;51.600;7.310;2024-03-23T07:58:51;8.77;;;2.70;;
14052;SDS011;7101;51.600;7.310;2024-03-23T08:01:18;7.93;;;3.05;;
14052;SDS011;7101;51.600;7.310;2024-03-23T08:03:44;13.05;;;2.92;;
14052;SDS011;7101;51.600;7.310;2024-03-23T08:06:13;8.02;;;2.65;;
14052;SDS011;7101;51.600;7.310;2024-03-23T08:08:42;6.47;;;2.70;;
14052;SDS011;7101;51.600;7.310;2024-03-23T08:11:10;5.55;;;2.03;;
14052;SDS011;7101;51.600;7.310;2024-03-23T08:13:38;6.88;;;1.83;;
14052;SDS011;7101;51.600;7.310;2024-03-23T08:16:08;6.15;;;2.10;;
14052;SDS011;7101;51.600;7.310;2024-03-23T08:18:35;8.45;;;2.17;;
14052;SDS011;7101;51.600;7.310;2024-03-23T08:21:01;7.25;;;2.40;;
14052;SDS011;7101;51.600;7.310;2024-03-23T08:23:31;8.82;;;2.30;;
14052;SDS011;7101;51.600;7.310;2024-03-23T08:26:02;7.53;;;2.20;;
14052;SDS011;7101;51.600;7.310;2024-03-23T08:28:29;6.93;;;2.38;;
14052;SDS011;7101;51.600;7.310;2024-03-23T08:30:56;9.20;;;2.42;;
14052;SDS011;7101;51.600;7.310;2024-03-23T08:33:26;7.05;;;2.40;;
14052;SDS011;7101;51.600;7.310;2024-03-23T08:35:54;8.50;;;2.40;;
14052;SDS011;7101;51.600;7.310;2024-03-23T08:38:21;6.03;;;2.67;;
14052;SDS011;7101;51.600;7.310;2024-03-23T08:40:53;5.65;;;2.30;;
14052;SDS011;7101;51.600;7.310;2024-03-23T08:43:23;9.98;;;2.95;;
14052;SDS011;7101;51.600;7.310;2024-03-23T08:45:49;8.63;;;2.45;;
14052;SDS011;7101;51.600;7.310;2024-03-23T08:48:16;11.95;;;3.10;;
14052;SDS011;7101;51.600;7.310;2024-03-23T08:50:43;9.52;;;2.80;;
14052;SDS011;7101;51.600;7.310;2024-03-23T08:53:09;6.40;;;2.67;;
14052;SDS011;7101;51.600;7.310;2024-03-23T08:55:35;8.68;;;2.67;;
14052;SDS011;7101;51.600;7.310;2024-03-23T08:58:04;9.75;;;2.42;;
14052;SDS011;7101;51.600;7.310;2024-03-23T09:00:30;11.07;;;2.58;;
14052;SDS011;7101;51.600;7.310;2024-03-23T09:02:56;6.30;;;2.42;;
14052;SDS011;7101;51.600;7.310;2024-03-23T09:05:22;8.93;;;2.08;;
14052;SDS011;7101;51.600;7.310;2024-03-23T09:07:50;7.63;;;2.55;;
14052;SDS011;7101;51.600;7.310;2024-03-23T09:10:16;7.22;;;2.25;;
14052;SDS011;7101;51.600;7.310;2024-03-23T09:12:43;8.05;;;2.22;;
14052;SDS011;7101;51.600;7.310;2024-03-23T09:15:10;9.95;;;2.17;;
14052;SDS011;7101;51.600;7.310;2024-03-23T09:17:37;9.10;;;2.33;;
14052;SDS011;7101;51.600;7.310;2024-03-23T09:20:03;6.65;;;2.15;;
14052;SDS011;7101;51.600;7.310;2024-03-23T09:22:31;5.45;;;2.22;;
14052;SDS011;7101;51.600;7.310;2024-03-23T09:24:56;5.28;;;1.85;;
14052;SDS011;7101;51.600;7.310;2024-03-23T09:27:23;5.00;;;1.60;;
14052;SDS011;7101;51.600;7.310;2024-03-23T09:29:49;4.95;;;1.98;;
14052;SDS011;7101;51.600;7.310;2024-03-23T09:32:18;8.52;;;2.15;;
14052;SDS011;7101;51.600;7.310;2024-03-23T09:34:43;7.80;;;1.63;;
14052;SDS011;7101;51.600;7.310;2024-03-23T09:37:10;10.30;;;1.95;;
14052;SDS011;7101;51.600;7.310;2024-03-23T09:39:36;9.07;;;1.95;;
14052;SDS011;7101;51.600;7.310;2024-03-23T09:42:04;6.28;;;1.60;;
14052;SDS011;7101;51.600;7.310;2024-03-23T09:44:31;5.72;;;1.98;;
14052;SDS011;7101;51.600;7.310;2024-03-23T09:46:58;6.72;;;1.60;;
14052;SDS011;7101;51.600;7.310;2024-03-23T09:49:25;4.38;;;1.60;;
14052;SDS011;7101;51.600;7.310;2024-03-23T09:51:54;7.32;;;1.77;;
14052;SDS011;7101;51.600;7.310;2024-03-23T09:54:21;5.72;;;1.38;;
14052;SDS011;7101;51.600;7.310;2024-03-23T09:56:48;4.80;;;1.50;;
14052;SDS011;7101;51.600;7.310;2024-03-23T09:59:14;4.63;;;1.75;;
14052;SDS011;7101;51.600;7.310;2024-03-23T10:01:41;8.52;;;2.00;;
14052;SDS011;7101;51.600;7.310;2024-03-23T10:04:07;7.43;;;1.60;;
14052;SDS011;7101;51.600;7.310;2024-03-23T10:06:35;3.90;;;1.52;;
14052;SDS011;7101;51.600;7.310;2024-03-23T10:09:01;4.63;;;1.55;;
14052;SDS011;7101;51.600;7.310;2024-03-23T10:11:42;9.45;;;1.50;;
14052;SDS011;7101;51.600;7.310;2024-03-23T10:14:09;3.88;;;1.38;;
14052;SDS011;7101;51.600;7.310;2024-03-23T10:16:36;5.78;;;1.23;;
14052;SDS011;7101;51.600;7.310;2024-03-23T10:19:02;5.97;;;1.10;;
14052;SDS011;7101;51.600;7.310;2024-03-23T10:21:28;4.93;;;1.38;;
14052;SDS011;7101;51.600;7.310;2024-03-23T10:23:56;8.18;;;1.55;;
14052;SDS011;7101;51.600;7.310;2024-03-23T10:26:33;4.10;;;1.40;;
14052;SDS011;7101;51.600;7.310;2024-03-23T10:29:00;6.18;;;1.42;;
14052;SDS011;7101;51.600;7.310;2024-03-23T10:31:32;6.25;;;1.60;;
14052;SDS011;7101;51.600;7.310;2024-03-23T10:34:01;4.93;;;1.23;;
14052;SDS011;7101;51.600;7.310;2024-03-23T10:36:29;6.07;;;1.60;;
14052;SDS011;7101;51.600;7.310;2024-03-23T10:38:56;5.50;;;1.10;;
14052;SDS011;7101;51.600;7.310;2024-03-23T10:41:24;3.92;;;1.40;;
14052;SDS011;7101;51.600;7.310;2024-03-23T10:43:52;7.28;;;1.80;;
14052;SDS011;7101;51.600;7.310;2024-03-23T10:46:21;3.17;;;1.40;;
14052;SDS011;7101;51.600;7.310;2024-03-23T10:48:47;4.07;;;1.27;;
14052;SDS011;7101;51.600;7.310;2024-03-23T10:51:15;2.47;;;1.20;;
14052;SDS011;7101;51.600;7.310;2024-03-23T10:53:41;4.35;;;1.50;;
14052;SDS011;7101;51.600;7.310;2024-03-23T10:56:09;4.18;;;1.40;;
14052;SDS011;7101;51.600;7.310;2024-03-23T10:58:38;5.40;;;1.40;;
14052;SDS011;7101;51.600;7.310;2024-03-23T11:01:07;9.73;;;1.73;;
14052;SDS011;7101;51.600;7.310;2024-03-23T11:03:36;3.75;;;1.00;;
14052;SDS011;7101;51.600;7.310;2024-03-23T11:06:04;4.07;;;1.27;;
14052;SDS011;7101;51.600;7.310;2024-03-23T11:08:32;4.90;;;1.10;;
14052;SDS011;7101;51.600;7.310;2024-03-23T11:13:48;6.55;;;1.30;;
14052;SDS011;7101;51.600;7.310;2024-03-23T11:16:21;1.85;;;0.85;;
14052;SDS011;7101;51.600;7.310;2024-03-23T11:18:48;3.80;;;1.02;;
14052;SDS011;7101;51.600;7.310;2024-03-23T11:24:14;2.33;;;0.50;;
14052;SDS011;7101;51.600;7.310;2024-03-23T11:26:43;2.75;;;0.80;;
14052;SDS011;7101;51.600;7.310;2024-03-23T11:29:09;2.55;;;0.88;;
14052;SDS011;7101;51.600;7.310;2024-03-23T11:31:38;1.45;;;0.70;;
14052;SDS011;7101;51.600;7.310;2024-03-23T11:34:05;2.05;;;0.73;;
14052;SDS011;7101;51.600;7.310;2024-03-23T11:36:33;2.33;;;0.80;;
14052;SDS011;7101;51.600;7.310;2024-03-23T11:38:58;1.80;;;0.90;;
14052;SDS011;7101;51.600;7.310;2024-03-23T11:41:46;2.35;;;0.90;;
14052;SDS011;7101;51.600;7.310;2024-03-23T11:44:16;2.58;;;0.60;;
14052;SDS011;7101;51.600;7.310;2024-03-23T11:46:43;2.67;;;1.10;;
14052;SDS011;7101;51.600;7.310;2024-03-23T11:49:19;1.25;;;0.82;;
14052;SDS011;7101;51.600;7.310;2024-03-23T11:51:49;4.40;;;1.08;;
14052;SDS011;7101;51.600;7.310;2024-03-23T11:54:16;2.35;;;0.95;;
14052;SDS011;7101;51.600;7.310;2024-03-23T11:56:56;3.70;;;1.73;;
14052;SDS011;7101;51.600;7.310;2024-03-23T11:59:33;1.08;;;0.70;;
14052;SDS011;7101;51.600;7.310;2024-03-23T12:02:00;2.88;;;1.02;;
14052;SDS011;7101;51.600;7.310;2024-03-23T12:04:31;4.72;;;1.20;;
14052;SDS011;7101;51.600;7.310;2024-03-23T12:07:11;3.83;;;1.20;;
14052;SDS011;7101;51.600;7.310;2024-03-23T12:09:37;4.45;;;1.13;;
14052;SDS011;7101;51.600;7.310;2024-03-23T12:12:13;9.80;;;1.52;;
14052;SDS011;7101;51.600;7.310;2024-03-23T12:14:41;7.43;;;1.70;;
14052;SDS011;7101;51.600;7.310;2024-03-23T12:17:11;4.97;;;1.45;;
14052;SDS011;7101;51.600;7.310;2024-03-23T12:19:38;5.75;;;1.70;;
14052;SDS011;7101;51.600;7.310;2024-03-23T12:22:06;4.18;;;1.45;;
14052;SDS011;7101;51.600;7.310;2024-03-23T12:24:34;5.32;;;2.40;;
14052;SDS011;7101;51.600;7.310;2024-03-23T12:27:05;6.63;;;2.53;;
14052;SDS011;7101;51.600;7.310;2024-03-23T12:29:34;5.00;;;2.05;;
14052;SDS011;7101;51.600;7.310;2024-03-23T12:32:01;5.30;;;1.80;;
14052;SDS011;7101;51.600;7.310;2024-03-23T12:34:27;4.15;;;1.73;;
14052;SDS011;7101;51.600;7.310;2024-03-23T12:36:55;5.20;;;2.47;;
14052;SDS011;7101;51.600;7.310;2024-03-23T12:39:21;2.90;;;1.95;;
14052;SDS011;7101;51.600;7.310;2024-03-23T12:41:50;3.67;;;1.58;;
14052;SDS011;7101;51.600;7.310;2024-03-23T12:44:17;6.43;;;1.63;;
14052;SDS011;7101;51.600;7.310;2024-03-23T12:46:46;6.05;;;1.40;;
14052;SDS011;7101;51.600;7.310;2024-03-23T12:49:13;2.25;;;1.42;;
14052;SDS011;7101;51.600;7.310;2024-03-23T12:51:41;4.30;;;1.30;;
14052;SDS011;7101;51.600;7.310;2024-03-23T12:54:18;5.78;;;1.25;;
14052;SDS011;7101;51.600;7.310;2024-03-23T12:56:45;4.13;;;1.10;;
14052;SDS011;7101;51.600;7.310;2024-03-23T12:59:11;5.13;;;1.10;;
14052;SDS011;7101;51.600;7.310;2024-03-23T13:01:38;7.63;;;1.55;;
14052;SDS011;7101;51.600;7.310;2024-03-23T13:04:05;3.13;;;1.25;;
14052;SDS011;7101;51.600;7.310;2024-03-23T13:06:32;3.65;;;1.13;;
14052;SDS011;7101;51.600;7.310;2024-03-23T13:08:59;3.80;;;0.90;;
14052;SDS011;7101;51.600;7.310;2024-03-23T13:11:26;2.13;;;0.93;;
14052;SDS011;7101;51.600;7.310;2024-03-23T13:13:52;3.00;;;0.80;;
14052;SDS011;7101;51.600;7.310;2024-03-23T13:16:20;1.52;;;0.80;;
14052;SDS011;7101;51.600;7.310;2024-03-23T13:18:46;3.70;;;1.10;;
14052;SDS011;7101;51.600;7.310;2024-03-23T13:21:14;2.00;;;0.85;;
14052;SDS011;7101;51.600;7.310;2024-03-23T13:23:41;2.55;;;1.10;;
14052;SDS011;7101;51.600;7.310;2024-03-23T13:26:11;3.47;;;1.10;;
14052;SDS011;7101;51.600;7.310;2024-03-23T13:28:36;4.88;;;1.25;;
14052;SDS011;7101;51.600;7.310;2024-03-23T13:31:03;4.53;;;1.13;;
14052;SDS011;7101;51.600;7.310;2024-03-23T13:33:29;2.97;;;1.80;;
14052;SDS011;7101;51.600;7.310;2024-03-23T13:35:57;4.32;;;1.35;;
14052;SDS011;7101;51.600;7.310;2024-03-23T13:38:25;3.78;;;1.17;;
14052;SDS011;7101;51.600;7.310;2024-03-23T13:40:52;2.97;;;1.23;;
14052;SDS011;7101;51.600;7.310;2024-03-23T13:43:19;3.55;;;1.20;;
14052;SDS011;7101;51.600;7.310;2024-03-23T13:45:46;2.58;;;1.15;;
14052;SDS011;7101;51.600;7.310;2024-03-23T13:48:13;6.00;;;1.60;;
14052;SDS011;7101;51.600;7.310;2024-03-23T13:50:40;2.45;;;1.23;;
14052;SDS011;7101;51.600;7.310;2024-03-23T13:53:05;5.05;;;1.10;;
14052;SDS011;7101;51.600;7.310;2024-03-23T13:55:34;2.70;;;1.08;;
14052;SDS011;7101;51.600;7.310;2024-03-23T13:58:00;3.25;;;1.27;;
14052;SDS011;7101;51.600;7.310;2024-03-23T14:00:27;4.05;;;1.10;;
14052;SDS011;7101;51.600;7.310;2024-03-23T14:02:53;1.27;;;0.90;;
14052;SDS011;7101;51.600;7.310;2024-03-23T14:05:20;3.90;;;1.25;;
14052;SDS011;7101;51.600;7.310;2024-03-23T14:07:46;4.70;;;1.08;;
14052;SDS011;7101;51.600;7.310;2024-03-23T14:10:13;2.65;;;0.88;;
14052;SDS011;7101;51.600;7.310;2024-03-23T14:12:40;1.40;;;0.70;;
14052;SDS011;7101;51.600;7.310;2024-03-23T14:15:07;5.40;;;1.65;;
14052;SDS011;7101;51.600;7.310;2024-03-23T14:17:34;2.50;;;1.10;;
14052;SDS011;7101;51.600;7.310;2024-03-23T14:20:02;2.60;;;0.90;;
14052;SDS011;7101;51.600;7.310;2024-03-23T14:22:30;2.50;;;1.35;;
14052;SDS011;7101;51.600;7.310;2024-03-23T14:24:57;3.25;;;1.38;;
14052;SDS011;7101;51.600;7.310;2024-03-23T14:27:23;3.13;;;1.67;;
14052;SDS011;7101;51.600;7.310;2024-03-23T14:29:52;3.88;;;1.30;;
14052;SDS011;7101;51.600;7.310;2024-03-23T14:32:18;7.10;;;1.58;;
14052;SDS011;7101;51.600;7.310;2024-03-23T14:34:44;5.78;;;2.08;;
14052;SDS011;7101;51.600;7.310;2024-03-23T14:37:11;7.03;;;1.40;;
14052;SDS011;7101;51.600;7.310;2024-03-23T14:39:40;3.83;;;1.52;;
14052;SDS011;7101;51.600;7.310;2024-03-23T14:42:06;4.95;;;1.73;;
14052;SDS011;7101;51.600;7.310;2024-03-23T14:44:34;6.30;;;1.40;;
14052;SDS011;7101;51.600;7.310;2024-03-23T14:47:02;5.40;;;1.35;;
14052;SDS011;7101;51.600;7.310;2024-03-23T14:49:29;5.85;;;1.60;;
14052;SDS011;7101;51.600;7.310;2024-03-23T14:51:56;4.53;;;1.40;;
14052;SDS011;7101;51.600;7.310;2024-03-23T14:54:23;3.28;;;1.20;;
14052;SDS011;7101;51.600;7.310;2024-03-23T14:56:49;1.63;;;1.00;;
14052;SDS011;7101;51.600;7.310;2024-03-23T14:59:16;5.93;;;1.20;;
14052;SDS011;7101;51.600;7.310;2024-03-23T15:01:43;4.22;;;1.33;;
14052;SDS011;7101;51.600;7.310;2024-03-23T15:04:11;3.35;;;0.90;;
14052;SDS011;7101;51.600;7.310;2024-03-23T15:06:38;4.40;;;1.00;;
14052;SDS011;7101;51.600;7.310;2024-03-23T15:09:05;2.83;;;0.82;;
14052;SDS011;7101;51.600;7.310;2024-03-23T15:11:32;5.65;;;1.38;;
14052;SDS011;7101;51.600;7.310;2024-03-23T15:13:59;3.35;;;1.00;;
14052;SDS011;7101;51.600;7.310;2024-03-23T15:16:25;6.97;;;2.28;;
14052;SDS011;7101;51.600;7.310;2024-03-23T15:18:52;4.95;;;1.75;;
14052;SDS011;7101;51.600;7.310;2024-03-23T15:21:22;1.42;;;0.88;;
14052;SDS011;7101;51.600;7.310;2024-03-23T15:23:51;3.67;;;0.95;;
14052;SDS011;7101;51.600;7.310;2024-03-23T15:26:17;1.25;;;0.90;;
14052;SDS011;7101;51.600;7.310;2024-03-23T15:28:47;3.05;;;0.98;;
14052;SDS011;7101;51.600;7.310;2024-03-23T15:31:33;4.25;;;1.10;;
14052;SDS011;7101;51.600;7.310;2024-03-23T15:34:00;5.35;;;1.33;;
14052;SDS011;7101;51.600;7.310;2024-03-23T15:36:32;5.90;;;1.42;;
14052;SDS011;7101;51.600;7.310;2024-03-23T15:38:59;4.25;;;0.95;;
14052;SDS011;7101;51.600;7.310;2024-03-23T15:41:26;6.45;;;1.25;;
14052;SDS011;7101;51.600;7.310;2024-03-23T15:43:53;3.88;;;1.05;;
14052;SDS011;7101;51.600;7.310;2024-03-23T15:46:19;2.08;;;1.00;;
14052;SDS011;7101;51.600;7.310;2024-03-23T15:48:46;3.72;;;1.02;;
14052;SDS011;7101;51.600;7.310;2024-03-23T15:51:12;1.33;;;0.75;;
14052;SDS011;7101;51.600;7.310;2024-03-23T15:53:40;3.35;;;1.02;;
14052;SDS011;7101;51.600;7.310;2024-03-23T15:56:06;2.55;;;0.90;;
14052;SDS011;7101;51.600;7.310;2024-03-23T15:58:33;1.75;;;1.00;;
14052;SDS011;7101;51.600;7.310;2024-03-23T16:01:03;6.03;;;1.10;;
14052;SDS011;7101;51.600;7.310;2024-03-23T16:03:31;1.58;;;0.90;;